Time;durP1;ratioP1;P1;durP2;ratioP2;P2;SDS_P1;SDS_P2;PMS_P1;PMS_P2;Temp;Humidity;BMP_temperature;BMP_pressure;BME280_temperature;BME280_humidity;BME280_pressure;Samples;Min_cycle;Max_cycle;Signal;HPM_P1;HPM_P2
2023/01/03 00:00:08;;;;;;;;;;;;;;;5.77;97.94;102441.34;5057378;28;19939;-65
2023/01/03 00:02:34;;;;;;;;;;;;;;;5.75;98.22;102433.44;5052811;28;20364;-66
2023/01/03 00:04:59;;;;;;;;;;;;;;;5.73;98.14;102440.50;5084994;28;20437;-66
2023/01/03 00:07:33;;;;;;;;;;;;;;;5.69;98.01;102442.31;5052642;28;20007;-66
2023/01/03 00:10:02;;;;;;;;;;;;;;;5.63;98.15;102437.16;5066246;28;20403;-66
2023/01/03 00:12:28;;;;;;;;;;;;;;;5.64;98.28;102438.88;5052444;28;19912;-65
2023/01/03 00:14:54;;;;;;;;;;;;;;;5.61;98.21;102438.94;5052058;28;20319;-66
2023/01/03 00:17:20;;;;;;;;;;;;;;;5.60;98.18;102445.13;5052420;28;19923;-66
2023/01/03 00:19:46;;;;;;;;;;;;;;;5.62;97.83;102442.47;5067988;28;19932;-66
2023/01/03 00:22:13;;;;;;;;;;;;;;;5.55;97.72;102438.16;5096878;28;19916;-66
2023/01/03 00:24:38;;;;;;;;;;;;;;;5.53;97.68;102435.56;5051929;28;20287;-66
2023/01/03 00:27:06;;;;;;;;;;;;;;;5.47;97.97;102430.38;5052419;28;19943;-66
2023/01/03 00:29:34;;;;;;;;;;;;;;;5.47;97.96;102441.81;5056005;28;19962;-66
2023/01/03 00:32:00;;;;;;;;;;;;;;;5.44;97.43;102433.94;5101465;28;19947;-66
2023/01/03 00:34:26;;;;;;;;;;;;;;;5.42;98.20;102441.00;5062053;28;20001;-66
2023/01/03 00:36:51;;;;;;;;;;;;;;;5.38;97.50;102441.06;5069476;28;20375;-66
2023/01/03 00:39:19;;;;;;;;;;;;;;;5.37;98.26;102436.69;5085529;28;19926;-66
2023/01/03 00:41:44;;;;;;;;;;;;;;;5.37;98.07;102450.75;5087686;28;19948;-66
2023/01/03 00:44:10;;;;;;;;;;;;;;;5.38;97.98;102451.63;5071845;28;19904;-66
2023/01/03 00:46:38;;;;;;;;;;;;;;;5.37;98.01;102455.16;5087907;28;20814;-66
2023/01/03 00:49:04;;;;;;;;;;;;;;;5.37;97.57;102458.66;5066171;28;19959;-66
2023/01/03 00:51:30;;;;;;;;;;;;;;;5.38;98.10;102465.72;5050247;28;20032;-66
2023/01/03 00:53:57;;;;;;;;;;;;;;;5.36;97.56;102464.00;5051191;28;20000;-66
2023/01/03 00:56:29;;;;;;;;;;;;;;;5.36;97.75;102464.00;5050533;28;20003;-66
2023/01/03 00:58:55;;;;;;;;;;;;;;;5.33;97.55;102464.91;5051322;28;19991;-66
2023/01/03 01:01:22;;;;;;;;;;;;;;;5.29;97.54;102457.03;5071183;28;19999;-66
2023/01/03 01:03:49;;;;;;;;;;;;;;;5.26;97.18;102465.00;5071850;28;19909;-66
2023/01/03 01:06:14;;;;;;;;;;;;;;;5.24;97.82;102465.03;5069972;28;20332;-66
2023/01/03 01:08:39;;;;;;;;;;;;;;;5.24;97.35;102467.69;5071132;28;19917;-66
2023/01/03 01:11:09;;;;;;;;;;;;;;;5.22;97.45;102469.47;5059273;28;20275;-66
2023/01/03 01:13:34;;;;;;;;;;;;;;;5.16;97.25;102464.28;5054698;28;19913;-65
2023/01/03 01:16:03;;;;;;;;;;;;;;;5.14;98.07;102477.47;5062227;28;19924;-65
2023/01/03 01:18:28;;;;;;;;;;;;;;;5.11;97.65;102477.50;5070270;28;19909;-66
2023/01/03 01:20:53;;;;;;;;;;;;;;;5.05;97.37;102480.25;5071774;28;19966;-66
2023/01/03 01:23:19;;;;;;;;;;;;;;;5.01;97.41;102482.06;5070360;28;20386;-65
2023/01/03 01:25:44;;;;;;;;;;;;;;;4.99;97.64;102482.97;5070671;28;19958;-66
2023/01/03 01:28:10;;;;;;;;;;;;;;;4.98;97.85;102487.38;5085222;28;20002;-66
2023/01/03 01:30:38;;;;;;;;;;;;;;;4.97;97.25;102490.00;5071765;28;19920;-67
2023/01/03 01:33:04;;;;;;;;;;;;;;;4.95;97.63;102487.41;5066502;28;19908;-66
2023/01/03 01:35:29;;;;;;;;;;;;;;;4.94;97.42;102487.41;5069308;28;19928;-66
2023/01/03 01:37:55;;;;;;;;;;;;;;;4.91;97.75;102493.63;5070605;28;19965;-66
2023/01/03 01:40:20;;;;;;;;;;;;;;;4.91;97.15;102485.72;5070104;28;19916;-66
2023/01/03 01:45:29;;;;;;;;;;;;;;;4.81;97.43;102497.25;5069573;28;20312;-66
2023/01/03 01:47:59;;;;;;;;;;;;;;;4.77;97.52;102498.19;5083639;28;19917;-66
2023/01/03 01:50:25;;;;;;;;;;;;;;;4.77;97.22;102509.59;5052856;28;19959;-66
2023/01/03 01:52:53;;;;;;;;;;;;;;;4.73;97.82;102513.16;5055705;28;20042;-66
2023/01/03 01:55:21;;;;;;;;;;;;;;;4.68;97.80;102512.34;5070073;28;19920;-66
2023/01/03 01:57:46;;;;;;;;;;;;;;;4.67;97.61;102515.84;5057288;28;19991;-66
2023/01/03 02:00:12;;;;;;;;;;;;;;;4.64;98.12;102515.03;5062134;28;20054;-65
2023/01/03 02:02:37;;;;;;;;;;;;;;;4.63;97.65;102513.28;5070067;28;20272;-65
2023/01/03 02:05:05;;;;;;;;;;;;;;;4.61;97.33;102512.44;5071109;28;19915;-66
2023/01/03 02:07:31;;;;;;;;;;;;;;;4.61;97.20;102517.69;5071533;28;19909;-66
2023/01/03 02:09:57;;;;;;;;;;;;;;;4.60;97.21;102505.44;5068901;28;20302;-66
2023/01/03 02:15:18;;;;;;;;;;;;;;;4.57;97.10;102508.09;5074767;28;20017;-66
2023/01/03 02:18:09;;;;;;;;;;;;;;;4.55;97.82;102506.34;5074437;28;19908;-66
2023/01/03 02:21:07;;;;;;;;;;;;;;;4.54;97.88;102511.63;5049571;28;19916;-65
2023/01/03 02:23:47;;;;;;;;;;;;;;;4.52;98.11;102510.78;5028998;28;20003;-67
2023/01/03 02:26:25;;;;;;;;;;;;;;;4.50;98.08;102521.34;5054552;28;20406;-65
2023/01/03 02:28:56;;;;;;;;;;;;;;;4.48;97.87;102525.75;5053922;28;19912;-66
2023/01/03 02:31:41;;;;;;;;;;;;;;;4.52;97.51;102527.44;5053906;28;20675;-66
2023/01/03 02:34:06;;;;;;;;;;;;;;;4.41;97.57;102529.34;5052944;28;20382;-65
2023/01/03 02:36:43;;;;;;;;;;;;;;;4.36;98.07;102530.28;5061019;28;19948;-66
2023/01/03 02:39:13;;;;;;;;;;;;;;;4.35;97.85;102520.59;5053527;28;20299;-65
2023/01/03 02:42:56;;;;;;;;;;;;;;;4.32;97.91;102516.25;5053530;28;19908;-66
2023/01/03 02:44:44;;;;;;;;;;;;;;;4.29;97.91;102519.81;5066107;28;19922;-66
2023/01/03 02:47:12;;;;;;;;;;;;;;;4.28;97.90;102518.03;5073007;28;19912;-66
2023/01/03 02:49:41;;;;;;;;;;;;;;;4.28;97.84;102517.19;5073641;28;20325;-66
2023/01/03 02:52:12;;;;;;;;;;;;;;;4.26;98.22;102517.19;5074044;28;20128;-65
2023/01/03 02:54:48;;;;;;;;;;;;;;;4.25;97.86;102525.97;5087250;28;19947;-65
2023/01/03 02:57:15;;;;;;;;;;;;;;;4.23;98.39;102513.69;5074329;28;19913;-66
2023/01/03 02:59:50;;;;;;;;;;;;;;;4.22;98.14;102518.09;5073865;28;19909;-65
2023/01/03 03:02:18;;;;;;;;;;;;;;;4.20;98.43;102513.75;5074321;28;19954;-65
2023/01/03 03:04:45;;;;;;;;;;;;;;;4.18;97.93;102516.41;5058484;28;19920;-65
2023/01/03 03:07:14;;;;;;;;;;;;;;;4.17;98.04;102514.63;5059196;28;20375;-65
2023/01/03 03:15:11;;;;;;;;;;;;;;;4.11;98.21;102519.97;5071259;28;19942;-65
2023/01/03 03:17:37;;;;;;;;;;;;;;;4.09;97.86;102524.38;5041668;28;19955;-66
2023/01/03 03:25:54;;;;;;;;;;;;;;;4.04;97.99;102523.56;5054124;28;19916;-65
2023/01/03 03:28:34;;;;;;;;;;;;;;;4.05;98.45;102526.16;5053123;28;19925;-66
2023/01/03 03:31:07;;;;;;;;;;;;;;;4.05;97.74;102513.00;5054662;28;19913;-66
2023/01/03 03:33:37;;;;;;;;;;;;;;;4.06;98.44;102516.53;5052146;28;19908;-66
2023/01/03 03:36:10;;;;;;;;;;;;;;;4.06;98.25;102519.16;5053372;28;19974;-65
2023/01/03 03:38:38;;;;;;;;;;;;;;;4.07;97.99;102527.03;5051437;28;19951;-64
2023/01/03 03:46:51;;;;;;;;;;;;;;;4.06;98.20;102527.06;5059421;28;19923;-66
2023/01/03 03:49:38;;;;;;;;;;;;;;;4.05;98.10;102520.03;5067691;28;19912;-66
2023/01/03 03:52:23;;;;;;;;;;;;;;;4.03;97.66;102517.41;5071618;28;20003;-66
2023/01/03 03:54:52;;;;;;;;;;;;;;;4.03;97.71;102525.31;5070840;28;20061;-66
2023/01/03 03:57:28;;;;;;;;;;;;;;;3.99;97.91;102520.94;5071895;28;20260;-66
2023/01/03 03:59:57;;;;;;;;;;;;;;;3.99;98.54;102520.06;5064249;28;19920;-65
2023/01/03 04:02:24;;;;;;;;;;;;;;;3.96;97.53;102520.97;5068960;28;19920;-66
2023/01/03 04:04:53;;;;;;;;;;;;;;;3.97;97.88;102517.47;5070232;28;20046;-65
2023/01/03 04:07:18;;;;;;;;;;;;;;;3.96;97.98;102520.09;5070713;28;19987;-66
2023/01/03 04:09:44;;;;;;;;;;;;;;;3.96;98.41;102528.00;5069957;28;19919;-66
2023/01/03 04:12:09;;;;;;;;;;;;;;;3.93;97.86;102521.00;5066921;28;20290;-66
2023/01/03 04:14:35;;;;;;;;;;;;;;;3.92;98.31;102527.16;5065726;28;19912;-66
2023/01/03 04:17:00;;;;;;;;;;;;;;;3.93;97.93;102528.91;5103886;28;19955;-66
2023/01/03 04:19:26;;;;;;;;;;;;;;;3.92;98.13;102524.53;5104971;28;19912;-66
2023/01/03 04:21:51;;;;;;;;;;;;;;;3.87;98.60;102524.56;5071216;28;19919;-66
2023/01/03 04:24:19;;;;;;;;;;;;;;;3.86;97.92;102524.59;5069666;28;19913;-66
2023/01/03 04:26:44;;;;;;;;;;;;;;;3.86;97.86;102519.31;5070599;28;19916;-65
2023/01/03 04:29:12;;;;;;;;;;;;;;;3.87;98.21;102521.91;5068768;28;19922;-66
2023/01/03 04:31:37;;;;;;;;;;;;;;;3.89;98.87;102519.28;5067605;28;19925;-66
2023/01/03 04:34:03;;;;;;;;;;;;;;;3.87;98.00;102519.28;5066017;28;19935;-65
2023/01/03 04:36:29;;;;;;;;;;;;;;;3.84;98.06;102519.31;5067518;28;20291;-66
2023/01/03 04:38:54;;;;;;;;;;;;;;;3.84;98.42;102514.06;5059001;28;20623;-65
2023/01/03 04:41:20;;;;;;;;;;;;;;;3.83;99.16;102516.72;5055915;28;19913;-66
2023/01/03 04:44:03;;;;;;;;;;;;;;;3.81;98.53;102524.59;5070782;28;19935;-66
2023/01/03 04:46:33;;;;;;;;;;;;;;;3.79;99.25;102520.22;5080930;28;19939;-66
2023/01/03 04:48:59;;;;;;;;;;;;;;;3.77;98.44;102525.53;5051004;28;20371;-66
2023/01/03 04:51:24;;;;;;;;;;;;;;;3.76;98.54;102526.38;5051642;28;19909;-66
2023/01/03 04:53:50;;;;;;;;;;;;;;;3.73;98.98;102529.03;5051695;28;20385;-66
2023/01/03 04:56:15;;;;;;;;;;;;;;;3.72;99.37;102523.81;5053035;28;19967;-65
2023/01/03 04:58:41;;;;;;;;;;;;;;;3.72;99.72;102516.78;5051936;28;19944;-66
2023/01/03 05:01:09;;;;;;;;;;;;;;;3.72;99.40;102519.41;5051762;28;19913;-66
2023/01/03 05:03:36;;;;;;;;;;;;;;;3.72;99.20;102522.06;5052247;28;19932;-65
2023/01/03 05:06:03;;;;;;;;;;;;;;;3.74;99.33;102511.53;5066142;28;20290;-66
2023/01/03 05:08:29;;;;;;;;;;;;;;;3.76;99.79;102497.44;5071690;28;19952;-66
2023/01/03 05:10:54;;;;;;;;;;;;;;;3.80;99.35;102509.72;5071943;28;20001;-65
2023/01/03 05:13:19;;;;;;;;;;;;;;;3.84;99.18;102518.44;5087499;28;19912;-66
2023/01/03 05:15:47;;;;;;;;;;;;;;;3.85;98.98;102505.28;5062524;28;19917;-66
2023/01/03 05:18:13;;;;;;;;;;;;;;;3.85;99.22;102507.91;5083211;28;19952;-66
2023/01/03 05:26:09;;;;;;;;;;;;;;;3.89;99.47;102510.53;5060427;28;19927;-65
2023/01/03 05:28:34;;;;;;;;;;;;;;;3.90;99.31;102499.97;5070396;28;19916;-66
2023/01/03 05:31:02;;;;;;;;;;;;;;;3.91;99.76;102500.84;5071557;28;19987;-66
2023/01/03 05:33:29;;;;;;;;;;;;;;;3.87;99.40;102494.72;5062915;28;19982;-66
2023/01/03 05:35:55;;;;;;;;;;;;;;;3.89;100.00;102500.00;5063155;28;19912;-66
2023/01/03 05:38:21;;;;;;;;;;;;;;;3.88;100.00;102485.94;5070184;28;20295;-66
2023/01/03 05:40:46;;;;;;;;;;;;;;;3.90;100.00;102483.31;5071443;28;19916;-66
2023/01/03 05:43:11;;;;;;;;;;;;;;;3.92;100.00;102477.16;5053296;28;19917;-66
2023/01/03 05:45:39;;;;;;;;;;;;;;;3.96;100.00;102483.25;5052283;28;19913;-65
2023/01/03 05:48:05;;;;;;;;;;;;;;;3.98;99.90;102495.53;5062070;28;19920;-66
2023/01/03 05:50:31;;;;;;;;;;;;;;;3.99;100.00;102492.00;5065023;28;19913;-66
2023/01/03 05:52:56;;;;;;;;;;;;;;;4.02;100.00;102501.63;5055580;28;19916;-65
2023/01/03 05:55:21;;;;;;;;;;;;;;;4.03;100.00;102482.28;5062048;28;19921;-66
2023/01/03 05:57:47;;;;;;;;;;;;;;;4.04;100.00;102487.56;5055281;28;19959;-65
2023/01/03 06:00:13;;;;;;;;;;;;;;;4.07;100.00;102484.91;5055042;28;19908;-66
2023/01/03 06:02:38;;;;;;;;;;;;;;;4.10;100.00;102481.38;5053820;28;19909;-65
2023/01/03 06:05:05;;;;;;;;;;;;;;;4.14;100.00;102476.94;5055965;28;19924;-66
2023/01/03 06:07:35;;;;;;;;;;;;;;;4.17;100.00;102477.78;5064469;28;19912;-66
2023/01/03 06:10:00;;;;;;;;;;;;;;;4.21;100.00;102470.75;5074733;28;20302;-66
2023/01/03 06:12:26;;;;;;;;;;;;;;;4.25;100.00;102468.03;5065349;28;20019;-66
2023/01/03 06:14:54;;;;;;;;;;;;;;;4.28;100.00;102464.50;5046462;28;20005;-66
2023/01/03 06:20:03;;;;;;;;;;;;;;;4.34;100.00;102464.44;5063064;28;20288;-66
2023/01/03 06:22:28;;;;;;;;;;;;;;;4.41;100.00;102468.75;5054623;28;19916;-65
2023/01/03 06:24:54;;;;;;;;;;;;;;;4.45;100.00;102464.31;5054391;28;19913;-65
2023/01/03 06:27:19;;;;;;;;;;;;;;;4.43;100.00;102466.09;5087220;28;19970;-66
2023/01/03 06:29:45;;;;;;;;;;;;;;;4.44;100.00;102466.09;5050055;28;19917;-65
2023/01/03 06:32:10;;;;;;;;;;;;;;;4.49;100.00;102463.38;5034293;28;20288;-65
2023/01/03 06:34:36;;;;;;;;;;;;;;;4.47;100.00;102458.16;5058301;28;20441;-65
2023/01/03 06:37:03;;;;;;;;;;;;;;;4.50;100.00;102458.13;5074223;28;19919;-66
2023/01/03 06:39:29;;;;;;;;;;;;;;;4.49;100.00;102461.63;5065140;28;19927;-66
2023/01/03 06:41:54;;;;;;;;;;;;;;;4.50;100.00;102455.47;5051971;28;20288;-66
2023/01/03 06:44:20;;;;;;;;;;;;;;;4.50;100.00;102470.38;5054274;28;19913;-65
2023/01/03 06:53:11;;;;;;;;;;;;;;;4.50;100.00;102467.75;5054622;28;19928;-66
2023/01/03 06:55:15;;;;;;;;;;;;;;;4.53;100.00;102438.75;5058752;28;19943;-66
2023/01/03 06:57:40;;;;;;;;;;;;;;;4.54;100.00;102429.97;5053779;28;19909;-66
2023/01/03 07:00:06;;;;;;;;;;;;;;;4.53;100.00;102438.75;5070519;28;19916;-66
2023/01/03 07:02:31;;;;;;;;;;;;;;;4.55;100.00;102447.50;5072564;28;19915;-66
2023/01/03 07:04:57;;;;;;;;;;;;;;;4.52;100.00;102447.53;5068067;28;19923;-66
2023/01/03 07:07:22;;;;;;;;;;;;;;;4.57;100.00;102439.59;5052820;28;20363;-66
2023/01/03 07:09:48;;;;;;;;;;;;;;;4.52;100.00;102445.78;5053494;28;19913;-66
2023/01/03 07:15:00;;;;;;;;;;;;;;;4.53;100.00;102480.91;5067469;28;19935;-66
2023/01/03 07:17:26;;;;;;;;;;;;;;;4.55;100.00;102490.53;5089217;28;20367;-66
2023/01/03 07:19:51;;;;;;;;;;;;;;;4.59;100.00;102493.13;5070869;28;20383;-66
2023/01/03 07:22:17;;;;;;;;;;;;;;;4.65;100.00;102490.44;5073408;28;19908;-66
2023/01/03 07:24:42;;;;;;;;;;;;;;;4.66;100.00;102486.91;5083932;28;20433;-66
2023/01/03 07:27:07;;;;;;;;;;;;;;;4.65;100.00;102486.03;5055187;28;20034;-65
2023/01/03 07:29:33;;;;;;;;;;;;;;;4.69;100.00;102482.47;5061946;28;19912;-66
2023/01/03 07:32:00;;;;;;;;;;;;;;;4.74;100.00;102483.28;5073256;28;19908;-66
2023/01/03 07:34:25;;;;;;;;;;;;;;;4.83;100.00;102489.34;5071845;28;20283;-66
2023/01/03 07:36:51;;;;;;;;;;;;;;;4.76;100.00;102483.25;5068488;28;20023;-66
2023/01/03 07:39:16;;;;;;;;;;;;;;;4.80;100.00;102487.63;5084591;28;20007;-66
2023/01/03 07:44:25;;;;;;;;;;;;;;;4.84;100.00;102489.31;5060440;28;20284;-66
2023/01/03 07:46:51;;;;;;;;;;;;;;;4.87;100.00;102485.75;5060032;28;19913;-66
2023/01/03 07:49:16;;;;;;;;;;;;;;;4.86;100.00;102489.31;5099564;28;19949;-66
2023/01/03 07:51:42;;;;;;;;;;;;;;;4.86;100.00;102494.56;5083674;28;19916;-65
2023/01/03 07:54:08;;;;;;;;;;;;;;;4.84;100.00;102493.72;5059294;28;19919;-66
2023/01/03 07:56:33;;;;;;;;;;;;;;;4.82;100.00;102501.63;5054456;28;19987;-66
2023/01/03 07:58:59;;;;;;;;;;;;;;;4.81;100.00;102502.53;5050140;28;19974;-66
2023/01/03 08:01:24;;;;;;;;;;;;;;;4.83;100.00;102503.38;5049547;28;19996;-66
2023/01/03 08:03:49;;;;;;;;;;;;;;;4.82;100.00;102506.03;5072845;28;19917;-66
2023/01/03 08:06:16;;;;;;;;;;;;;;;4.77;100.00;102516.66;5067036;28;20002;-65
2023/01/03 08:08:42;;;;;;;;;;;;;;;4.78;100.00;102513.13;5068820;28;20271;-66
2023/01/03 08:14:00;;;;;;;;;;;;;;;4.84;100.00;102522.72;5041450;28;19923;-66
2023/01/03 08:16:25;;;;;;;;;;;;;;;4.88;100.00;102519.13;5064625;28;19917;-67
2023/01/03 08:18:51;;;;;;;;;;;;;;;4.89;100.00;102523.53;5032459;28;20312;-66
2023/01/03 08:21:17;;;;;;;;;;;;;;;4.94;100.00;102532.22;5032411;28;19917;-67
2023/01/03 08:23:42;;;;;;;;;;;;;;;4.97;100.00;102534.84;5049746;28;19912;-66
2023/01/03 08:26:12;;;;;;;;;;;;;;;5.10;100.00;102530.28;5051642;28;19912;-66
2023/01/03 08:28:38;;;;;;;;;;;;;;;5.06;100.00;102528.56;5051232;28;20427;-66
2023/01/03 08:31:22;;;;;;;;;;;;;;;5.09;100.00;102528.53;5050140;28;20055;-67
2023/01/03 08:33:49;;;;;;;;;;;;;;;5.12;100.00;102525.88;5059236;28;20375;-67
2023/01/03 08:36:15;;;;;;;;;;;;;;;5.17;100.00;102529.31;5040987;28;19913;-66
2023/01/03 08:38:44;;;;;;;;;;;;;;;5.22;100.00;102527.50;5031497;28;20383;-65
2023/01/03 08:41:10;;;;;;;;;;;;;;;5.24;100.00;102534.50;5031959;28;20012;-68
2023/01/03 08:43:37;;;;;;;;;;;;;;;5.27;100.00;102538.84;5032234;28;19909;-66
2023/01/03 08:46:07;;;;;;;;;;;;;;;5.34;100.00;102542.28;5033152;28;19924;-66
2023/01/03 08:48:34;;;;;;;;;;;;;;;5.35;100.00;102546.66;5038938;28;19913;-66
2023/01/03 08:51:00;;;;;;;;;;;;;;;5.46;100.00;102544.72;5049565;28;20279;-66
2023/01/03 08:53:28;;;;;;;;;;;;;;;5.40;100.00;102540.41;5059243;28;19916;-66
2023/01/03 08:55:56;;;;;;;;;;;;;;;5.46;100.00;102542.97;5082224;28;19956;-66
2023/01/03 08:58:34;;;;;;;;;;;;;;;5.48;100.00;102550.88;5031871;28;19955;-66
2023/01/03 09:01:03;;;;;;;;;;;;;;;5.63;100.00;102555.06;5034609;28;20380;-66
2023/01/03 09:03:29;;;;;;;;;;;;;;;5.56;100.00;102551.63;5063275;28;20364;-66
2023/01/03 09:05:54;;;;;;;;;;;;;;;5.58;100.00;102549.81;5073194;28;19954;-66
2023/01/03 09:08:19;;;;;;;;;;;;;;;5.60;100.00;102555.09;5083612;28;20334;-66
2023/01/03 09:10:45;;;;;;;;;;;;;;;5.67;100.00;102549.69;5050693;28;19955;-66
2023/01/03 09:13:11;;;;;;;;;;;;;;;5.65;100.00;102554.13;5050287;28;19995;-66
2023/01/03 09:15:36;;;;;;;;;;;;;;;5.70;100.00;102554.91;5048761;28;20351;-66
2023/01/03 09:18:04;;;;;;;;;;;;;;;5.72;100.00;102554.91;5084001;28;19912;-66
2023/01/03 09:20:29;;;;;;;;;;;;;;;5.69;100.00;102550.53;5083138;28;19917;-66
2023/01/03 09:22:57;;;;;;;;;;;;;;;5.72;100.00;102557.56;5087244;28;19920;-66
2023/01/03 09:25:25;;;;;;;;;;;;;;;5.75;100.00;102562.78;5053112;28;19996;-66
2023/01/03 09:27:50;;;;;;;;;;;;;;;5.79;100.00;102559.19;5052048;28;19917;-66
2023/01/03 09:30:16;;;;;;;;;;;;;;;5.83;100.00;102557.41;5049626;28;19917;-66
2023/01/03 09:32:42;;;;;;;;;;;;;;;5.79;100.00;102553.03;5054714;28;19920;-66
2023/01/03 09:35:07;;;;;;;;;;;;;;;5.86;100.00;102550.28;5070548;28;19917;-66
2023/01/03 09:37:33;;;;;;;;;;;;;;;5.91;100.00;102555.47;5055419;28;19909;-66
2023/01/03 09:40:00;;;;;;;;;;;;;;;5.86;100.00;102560.84;5045913;28;20288;-66
2023/01/03 09:45:15;;;;;;;;;;;;;;;5.90;100.00;102562.53;5055176;28;19932;-66
2023/01/03 09:47:41;;;;;;;;;;;;;;;5.94;100.00;102563.38;5054302;28;19992;-66
2023/01/03 09:50:15;;;;;;;;;;;;;;;5.96;100.00;102566.00;5048702;28;20055;-66
2023/01/03 10:04:10;;;;;;;;;;;;;;;6.10;100.00;102550.81;5035318;28;20000;-66
2023/01/03 10:07:08;;;;;;;;;;;;;;;6.14;100.00;102553.38;5035325;28;19908;-66
2023/01/03 10:09:39;;;;;;;;;;;;;;;6.18;100.00;102543.63;5032990;28;19909;-66
2023/01/03 10:12:04;;;;;;;;;;;;;;;6.19;100.00;102552.44;5059795;28;19913;-66
2023/01/03 10:14:44;;;;;;;;;;;;;;;6.26;100.00;102551.41;5073237;28;19915;-66
2023/01/03 10:17:24;;;;;;;;;;;;;;;6.24;100.00;102540.88;5074230;28;19913;-66
2023/01/03 10:19:49;;;;;;;;;;;;;;;6.29;100.00;102551.34;5071224;28;19921;-66
2023/01/03 10:22:19;;;;;;;;;;;;;;;6.31;100.00;102550.44;5060659;28;20414;-66
2023/01/03 10:24:46;;;;;;;;;;;;;;;6.33;100.00;102550.41;5033853;28;19909;-66
2023/01/03 10:27:13;;;;;;;;;;;;;;;6.38;100.00;102553.81;5034602;28;20292;-66
2023/01/03 10:29:39;;;;;;;;;;;;;;;6.41;100.00;102552.91;5034387;28;19963;-66
2023/01/03 10:32:23;;;;;;;;;;;;;;;6.42;100.00;102549.38;5034466;28;19956;-66
2023/01/03 10:35:00;;;;;;;;;;;;;;;6.47;100.00;102547.50;5070798;28;19912;-66
2023/01/03 10:37:26;;;;;;;;;;;;;;;6.53;100.00;102550.94;5074123;28;19916;-66
2023/01/03 10:40:02;;;;;;;;;;;;;;;6.54;100.00;102550.03;5089500;28;20437;-66
2023/01/03 10:42:29;;;;;;;;;;;;;;;6.59;100.00;102556.09;5074503;28;19908;-66
2023/01/03 10:44:56;;;;;;;;;;;;;;;6.67;100.00;102557.72;5057921;28;20322;-66
2023/01/03 10:47:26;;;;;;;;;;;;;;;6.69;100.00;102553.28;5054261;28;19913;-66
2023/01/03 10:49:57;;;;;;;;;;;;;;;6.69;100.00;102545.34;5054062;28;20352;-66
2023/01/03 10:52:22;;;;;;;;;;;;;;;6.70;100.00;102541.78;5053993;28;19915;-66
2023/01/03 10:54:50;;;;;;;;;;;;;;;6.81;100.00;102545.09;5063880;28;20277;-66
2023/01/03 10:57:34;;;;;;;;;;;;;;;6.77;100.00;102552.22;5074287;28;19916;-67
2023/01/03 10:59:59;;;;;;;;;;;;;;;6.76;100.00;102542.53;5073979;28;19913;-66
2023/01/03 11:02:24;;;;;;;;;;;;;;;6.78;100.00;102553.09;5089392;28;20386;-66
2023/01/03 11:05:06;;;;;;;;;;;;;;;6.83;100.00;102543.31;5058148;28;19999;-66
2023/01/03 11:07:31;;;;;;;;;;;;;;;6.82;100.00;102546.81;5053629;28;19909;-66
2023/01/03 11:09:57;;;;;;;;;;;;;;;6.84;100.00;102534.44;5053289;28;19962;-66
2023/01/03 11:12:25;;;;;;;;;;;;;;;6.86;100.00;102534.44;5086002;28;19943;-66
2023/01/03 11:14:51;;;;;;;;;;;;;;;6.87;100.00;102530.88;5054180;28;20342;-66
2023/01/03 11:17:19;;;;;;;;;;;;;;;6.86;100.00;102530.00;5053536;28;19974;-66
2023/01/03 11:19:44;;;;;;;;;;;;;;;6.87;100.00;102530.88;5052323;28;19916;-66
2023/01/03 11:22:26;;;;;;;;;;;;;;;6.89;100.00;102539.66;5053492;28;19917;-66
2023/01/03 11:24:58;;;;;;;;;;;;;;;6.99;100.00;102538.56;5068766;28;19913;-66
2023/01/03 11:27:26;;;;;;;;;;;;;;;6.94;100.00;102537.78;5073514;28;19916;-67
2023/01/03 11:30:05;;;;;;;;;;;;;;;6.96;100.00;102528.91;5073289;28;20257;-65
2023/01/03 11:32:36;;;;;;;;;;;;;;;6.98;100.00;102537.69;5071479;28;19916;-66
2023/01/03 11:35:19;;;;;;;;;;;;;;;6.95;100.00;102535.13;5053928;28;20462;-66
2023/01/03 11:38:03;;;;;;;;;;;;;;;7.01;100.00;102534.97;5054676;28;20291;-66
2023/01/03 11:40:50;;;;;;;;;;;;;;;6.96;100.00;102541.25;5060168;28;19928;-66
2023/01/03 11:43:15;;;;;;;;;;;;;;;7.00;100.00;102535.91;5053237;28;19912;-65
2023/01/03 11:45:46;;;;;;;;;;;;;;;6.94;100.00;102529.84;5052709;28;20003;-66
2023/01/03 11:48:30;;;;;;;;;;;;;;;7.00;100.00;102533.25;5051684;28;19913;-67
2023/01/03 11:51:01;;;;;;;;;;;;;;;6.87;100.00;102526.47;5058733;28;19913;-66
2023/01/03 11:53:32;;;;;;;;;;;;;;;6.88;100.00;102524.69;5068324;28;19936;-66
2023/01/03 11:56:17;;;;;;;;;;;;;;;6.92;100.00;102527.25;5068374;28;19944;-66
2023/01/03 11:58:51;;;;;;;;;;;;;;;6.93;100.00;102518.41;5052212;28;20011;-66
2023/01/03 12:01:23;;;;;;;;;;;;;;;6.99;100.00;102518.25;5053098;28;19912;-67
2023/01/03 12:04:17;;;;;;;;;;;;;;;7.08;100.00;102508.41;5052929;28;19912;-66
2023/01/03 12:06:48;;;;;;;;;;;;;;;7.22;100.00;102506.31;5051746;28;19908;-66
2023/01/03 12:09:33;;;;;;;;;;;;;;;7.53;100.00;102505.59;5051469;28;19916;-66
2023/01/03 12:12:17;;;;;;;;;;;;;;;7.62;100.00;102500.97;5057814;28;19914;-66
2023/01/03 12:14:46;;;;;;;;;;;;;;;7.87;100.00;102493.28;5072482;28;19913;-66
2023/01/03 12:17:14;;;;;;;;;;;;;;;8.00;99.48;102485.00;5072602;28;19913;-66
2023/01/03 12:19:39;;;;;;;;;;;;;;;8.05;98.73;102485.78;5069363;28;19914;-66
2023/01/03 12:22:11;;;;;;;;;;;;;;;7.96;98.04;102482.44;5069221;28;20355;-66
2023/01/03 12:24:50;;;;;;;;;;;;;;;7.91;97.63;102470.22;5070587;28;19916;-66
2023/01/03 12:27:36;;;;;;;;;;;;;;;7.94;98.86;102476.34;5072754;28;19920;-66
2023/01/03 12:30:04;;;;;;;;;;;;;;;8.05;96.34;102473.38;5064692;28;19939;-66
2023/01/03 12:32:37;;;;;;;;;;;;;;;7.96;97.24;102471.84;5059336;28;19924;-66
2023/01/03 12:35:21;;;;;;;;;;;;;;;8.08;95.52;102473.31;5050304;28;19916;-66
2023/01/03 12:37:48;;;;;;;;;;;;;;;7.90;97.03;102474.66;5057658;28;19912;-66
2023/01/03 12:40:20;;;;;;;;;;;;;;;8.02;96.55;102467.31;5053732;28;19917;-65
2023/01/03 12:42:46;;;;;;;;;;;;;;;8.01;96.03;102465.59;5054224;28;19966;-66
2023/01/03 12:45:11;;;;;;;;;;;;;;;7.84;96.34;102468.66;5059452;28;19951;-66
2023/01/03 12:47:44;;;;;;;;;;;;;;;7.80;96.13;102467.88;5060372;28;19909;-66
2023/01/03 12:50:15;;;;;;;;;;;;;;;7.79;96.26;102474.06;5051253;28;19912;-67
2023/01/03 12:52:41;;;;;;;;;;;;;;;7.77;97.05;102472.38;5050006;28;20029;-66
2023/01/03 12:55:17;;;;;;;;;;;;;;;7.83;96.43;102462.50;5063930;28;20487;-65
2023/01/03 12:58:03;;;;;;;;;;;;;;;7.79;97.09;102466.13;5050952;28;20394;-66
2023/01/03 13:00:34;;;;;;;;;;;;;;;7.81;96.66;102466.94;5048105;28;19913;-66
2023/01/03 13:03:14;;;;;;;;;;;;;;;7.82;96.40;102471.31;5051974;28;19956;-66
2023/01/03 13:05:46;;;;;;;;;;;;;;;7.82;95.63;102476.63;5050922;28;19919;-66
2023/01/03 13:08:24;;;;;;;;;;;;;;;7.77;96.25;102472.38;5048102;28;19912;-66
2023/01/03 13:10:52;;;;;;;;;;;;;;;7.91;95.56;102475.53;5064946;28;19948;-66
2023/01/03 13:13:18;;;;;;;;;;;;;;;7.88;96.05;102467.66;5053901;28;19913;-66
2023/01/03 13:15:45;;;;;;;;;;;;;;;7.82;95.66;102458.09;5050830;28;19916;-66
2023/01/03 13:18:27;;;;;;;;;;;;;;;7.88;95.33;102470.31;5050738;28;19912;-65
2023/01/03 13:20:53;;;;;;;;;;;;;;;8.01;95.22;102455.84;5050884;28;19955;-66
2023/01/03 13:23:29;;;;;;;;;;;;;;;8.08;94.34;102456.53;5045995;28;19964;-66
2023/01/03 13:26:04;;;;;;;;;;;;;;;8.01;94.46;102460.28;5064077;28;19973;-66
2023/01/03 13:28:33;;;;;;;;;;;;;;;7.99;95.11;102455.00;5057032;28;19923;-66
2023/01/03 13:31:25;;;;;;;;;;;;;;;8.04;93.10;102457.56;5035328;28;19948;-65
2023/01/03 13:33:54;;;;;;;;;;;;;;;8.27;93.86;102454.28;5049624;28;19915;-66
2023/01/03 13:36:20;;;;;;;;;;;;;;;8.63;91.07;102455.03;5050061;28;19912;-66
2023/01/03 13:38:45;;;;;;;;;;;;;;;8.60;91.62;102445.41;5062450;28;19996;-66
2023/01/03 13:41:28;;;;;;;;;;;;;;;8.60;89.99;102440.09;5059624;28;19924;-66
2023/01/03 13:43:53;;;;;;;;;;;;;;;8.57;89.75;102434.88;5056817;28;19912;-66
2023/01/03 13:46:24;;;;;;;;;;;;;;;8.73;90.11;102453.84;5065976;28;20394;-67
2023/01/03 13:49:03;;;;;;;;;;;;;;;8.66;90.97;102446.13;5071380;28;19916;-66
2023/01/03 13:51:31;;;;;;;;;;;;;;;8.54;90.17;102447.38;5083724;28;20433;-67